createdAt,value
2018-10-12T00:01:12.325Z,100758.58
2018-10-12T00:03:40.390Z,100767.38
2018-10-12T00:06:14.543Z,100769.05
2018-10-12T00:08:42.642Z,100764.16
2018-10-12T00:11:10.756Z,100768.45
2018-10-12T00:13:38.911Z,100762.33
2018-10-12T00:16:07.092Z,100768.25
2018-10-12T00:18:35.181Z,100776.72
2018-10-12T00:21:03.339Z,100790.88
2018-10-12T00:23:31.423Z,100791.40
2018-10-12T00:25:59.575Z,100778.16
2018-10-12T00:28:27.676Z,100783.61
2018-10-12T00:31:09.393Z,100802.83
2018-10-12T00:33:38.011Z,100807.57
2018-10-12T00:36:17.600Z,100814.10
2018-10-12T00:38:45.879Z,100807.70
2018-10-12T00:41:14.003Z,100802.10
2018-10-12T00:43:42.648Z,100810.67
2018-10-12T00:46:17.992Z,100809.45
2018-10-12T00:48:46.075Z,100809.08
2018-10-12T00:51:17.719Z,100807.48
2018-10-12T00:53:49.459Z,100808.23
2018-10-12T00:56:17.630Z,100801.61
2018-10-12T00:58:45.713Z,100805.52
2018-10-12T01:01:13.890Z,100803.84
2018-10-12T01:03:41.983Z,100805.72
2018-10-12T01:06:10.100Z,100803.50
2018-10-12T01:08:38.183Z,100807.66
2018-10-12T01:11:06.321Z,100808.02
2018-10-12T01:13:34.488Z,100803.70
2018-10-12T01:16:02.589Z,100804.84
2018-10-12T01:18:30.689Z,100805.26
2018-10-12T01:20:58.809Z,100802.41
2018-10-12T01:23:26.893Z,100808.37
2018-10-12T01:25:55.039Z,100813.83
2018-10-12T01:28:23.128Z,100813.32
2018-10-12T01:30:51.262Z,100818.13
2018-10-12T01:33:19.403Z,100817.55
2018-10-12T01:35:47.473Z,100815.88
2018-10-12T01:38:15.561Z,100808.12
2018-10-12T01:40:43.647Z,100817.16
2018-10-12T01:43:11.805Z,100809.66
2018-10-12T01:45:39.905Z,100805.00
2018-10-12T01:48:07.995Z,100811.29
2018-10-12T01:50:36.114Z,100812.94
2018-10-12T01:53:04.195Z,100816.17
2018-10-12T01:55:32.299Z,100818.58
2018-10-12T01:58:00.449Z,100817.08
2018-10-12T02:00:28.581Z,100823.73
2018-10-12T02:02:56.715Z,100830.19
2018-10-12T02:05:24.844Z,100839.02
2018-10-12T02:07:52.932Z,100837.53
2018-10-12T02:10:21.003Z,100842.40
2018-10-12T02:12:49.093Z,100832.95
2018-10-12T02:15:17.173Z,100832.97
2018-10-12T02:17:45.231Z,100832.88
2018-10-12T02:20:13.681Z,100847.76
2018-10-12T02:22:42.264Z,100857.70
2018-10-12T02:25:11.172Z,100862.67
2018-10-12T02:27:39.799Z,100858.72
2018-10-12T02:30:08.401Z,100861.72
2018-10-12T02:32:36.600Z,100867.98
2018-10-12T02:35:05.104Z,100872.91
2018-10-12T02:37:33.393Z,100875.50
2018-10-12T02:40:01.564Z,100878.52
2018-10-12T02:42:29.640Z,100877.23
2018-10-12T02:44:57.721Z,100879.07
2018-10-12T02:47:25.795Z,100882.77
2018-10-12T02:49:53.911Z,100884.53
2018-10-12T02:52:22.016Z,100886.03
2018-10-12T02:54:50.113Z,100885.06
2018-10-12T02:57:18.255Z,100879.75
2018-10-12T02:59:46.375Z,100884.41
2018-10-12T03:02:14.487Z,100886.53
2018-10-12T03:04:42.609Z,100899.62
2018-10-12T03:07:10.693Z,100890.86
2018-10-12T03:09:38.791Z,100895.33
2018-10-12T03:12:06.886Z,100897.06
2018-10-12T03:14:34.967Z,100907.05
2018-10-12T03:17:03.033Z,100905.09
2018-10-12T03:19:31.121Z,100913.75
2018-10-12T03:21:59.211Z,100928.34
2018-10-12T03:24:27.292Z,100928.27
2018-10-12T03:26:55.371Z,100925.82
2018-10-12T03:29:23.440Z,100935.37
2018-10-12T03:31:51.539Z,100934.03
2018-10-12T03:34:19.974Z,100932.05
2018-10-12T03:36:48.065Z,100924.41
2018-10-12T03:39:16.140Z,100926.73
2018-10-12T03:41:44.315Z,100938.14
2018-10-12T03:44:12.399Z,100944.07
2018-10-12T03:46:40.493Z,100948.55
2018-10-12T03:49:08.570Z,100948.69
2018-10-12T03:51:36.700Z,100954.45
2018-10-12T03:54:04.818Z,100953.27
2018-10-12T03:56:32.893Z,100945.92
2018-10-12T03:59:00.963Z,100947.06
2018-10-12T04:01:29.059Z,100956.03
2018-10-12T04:03:57.153Z,100960.19
2018-10-12T04:06:25.407Z,100966.41
2018-10-12T04:08:53.500Z,100960.24
2018-10-12T04:11:21.599Z,100966.00
2018-10-12T04:13:49.704Z,100967.94
2018-10-12T04:16:17.831Z,100965.95
2018-10-12T04:18:45.917Z,100967.98
2018-10-12T04:21:14.011Z,100978.53
2018-10-12T04:23:42.167Z,100968.58
2018-10-12T04:26:10.437Z,100979.13
2018-10-12T04:28:38.549Z,100984.88
2018-10-12T04:31:06.616Z,100992.34
2018-10-12T04:33:34.700Z,100982.45
2018-10-12T04:36:02.775Z,100984.94
2018-10-12T04:41:17.069Z,100981.22
2018-10-12T04:43:46.193Z,100993.72
2018-10-12T04:46:20.603Z,101002.39
2018-10-12T04:48:49.583Z,101003.08
2018-10-12T04:51:22.076Z,101004.54
2018-10-12T04:53:50.386Z,101007.06
2018-10-12T04:56:19.568Z,101010.00
2018-10-12T04:58:47.677Z,101009.69
2018-10-12T05:01:15.901Z,101026.39
2018-10-12T05:03:43.857Z,101034.66
2018-10-12T05:06:11.957Z,101035.84
2018-10-12T05:08:40.197Z,101040.07
2018-10-12T05:11:08.324Z,101040.38
2018-10-12T05:13:36.775Z,101048.38
2018-10-12T05:16:05.650Z,101047.53
2018-10-12T05:18:33.772Z,101047.10
2018-10-12T05:21:02.664Z,101051.45
2018-10-12T05:23:30.863Z,101051.05
2018-10-12T05:25:59.468Z,101052.42
2018-10-12T05:28:28.273Z,101044.55
2018-10-12T05:30:56.542Z,101048.45
2018-10-12T05:33:24.740Z,101050.91
2018-10-12T05:35:53.119Z,101046.16
2018-10-12T05:38:21.931Z,101053.38
2018-10-12T05:40:50.055Z,101065.23
2018-10-12T05:43:18.448Z,101072.91
2018-10-12T05:45:47.250Z,101079.23
2018-10-12T05:48:26.931Z,101091.55
2018-10-12T05:50:55.240Z,101084.23
2018-10-12T05:53:24.261Z,101082.64
2018-10-12T05:55:52.425Z,101084.78
2018-10-12T05:58:20.755Z,101087.69
2018-10-12T06:00:49.377Z,101097.59
2018-10-12T06:03:17.455Z,101098.28
2018-10-12T06:05:45.550Z,101098.59
2018-10-12T06:08:13.632Z,101096.18
2018-10-12T06:10:41.727Z,101095.14
2018-10-12T06:13:09.816Z,101096.08
2018-10-12T06:15:37.926Z,101101.89
2018-10-12T06:18:07.932Z,101097.59
2018-10-12T06:20:36.172Z,101103.75
2018-10-12T06:23:04.328Z,101118.73
2018-10-12T06:25:32.494Z,101124.23
2018-10-12T06:28:00.707Z,101133.89
2018-10-12T06:30:28.839Z,101142.37
2018-10-12T06:32:57.021Z,101152.81
2018-10-12T06:35:25.418Z,101148.75
2018-10-12T06:37:53.626Z,101145.77
2018-10-12T06:40:21.827Z,101150.80
2018-10-12T06:42:49.923Z,101143.30
2018-10-12T06:45:18.047Z,101154.02
2018-10-12T06:47:46.165Z,101159.58
2018-10-12T06:50:14.243Z,101162.56
2018-10-12T06:52:42.311Z,101176.06
2018-10-12T06:55:10.431Z,101176.02
2018-10-12T06:57:38.507Z,101183.83
2018-10-12T07:00:06.851Z,101193.55
2018-10-12T07:02:34.864Z,101202.05
2018-10-12T07:05:02.965Z,101210.00
2018-10-12T07:07:31.059Z,101203.10
2018-10-12T07:09:59.148Z,101194.46
2018-10-12T07:12:27.231Z,101202.50
2018-10-12T07:14:55.323Z,101194.17
2018-10-12T07:17:24.080Z,101203.30
2018-10-12T07:19:52.249Z,101203.24
2018-10-12T07:22:20.395Z,101214.88
2018-10-12T07:24:48.493Z,101217.23
2018-10-12T07:27:16.611Z,101221.88
2018-10-12T07:29:45.144Z,101216.95
2018-10-12T07:32:13.285Z,101222.66
2018-10-12T07:34:41.392Z,101232.07
2018-10-12T07:37:09.542Z,101235.34
2018-10-12T07:39:37.571Z,101227.31
2018-10-12T07:42:05.701Z,101220.84
2018-10-12T07:44:33.783Z,101223.89
2018-10-12T07:47:02.012Z,101220.55
2018-10-12T07:49:40.556Z,101219.91
2018-10-12T07:52:08.610Z,101224.77
2018-10-12T07:54:38.350Z,101232.84
2018-10-12T07:57:12.498Z,101230.97
2018-10-12T07:59:41.285Z,101236.27
2018-10-12T08:02:11.320Z,101236.43
2018-10-12T08:04:40.567Z,101244.84
2018-10-12T08:07:09.019Z,101250.70
2018-10-12T08:09:37.727Z,101250.22
2018-10-12T08:12:05.839Z,101243.30
2018-10-12T08:17:27.911Z,101254.05
2018-10-12T08:19:56.015Z,101258.00
2018-10-12T08:22:24.171Z,101263.39
2018-10-12T08:24:52.280Z,101265.38
2018-10-12T08:27:20.449Z,101273.16
2018-10-12T08:29:48.620Z,101273.37
2018-10-12T08:32:16.746Z,101280.77
2018-10-12T08:34:44.888Z,101276.91
2018-10-12T08:37:13.045Z,101279.21
2018-10-12T08:39:41.131Z,101276.19
2018-10-12T08:42:09.236Z,101275.06
2018-10-12T08:44:37.371Z,101270.69
2018-10-12T08:47:05.544Z,101268.28
2018-10-12T08:49:33.651Z,101270.03
2018-10-12T08:52:01.807Z,101274.81
2018-10-12T08:54:29.968Z,101279.91
2018-10-12T08:56:58.055Z,101279.80
2018-10-12T08:59:26.163Z,101283.72
2018-10-12T09:01:54.256Z,101280.06
2018-10-12T09:04:22.823Z,101274.53
2018-10-12T09:06:50.932Z,101281.78
2018-10-12T09:09:19.098Z,101270.95
2018-10-12T09:11:47.224Z,101275.66
2018-10-12T09:14:15.325Z,101280.42
2018-10-12T09:16:43.408Z,101285.41
2018-10-12T09:19:11.502Z,101285.06
2018-10-12T09:21:39.625Z,101281.47
2018-10-12T09:24:07.696Z,101282.82
2018-10-12T09:26:35.898Z,101278.28
2018-10-12T09:29:04.110Z,101281.33
2018-10-12T09:31:32.203Z,101284.44
2018-10-12T09:34:00.390Z,101287.06
2018-10-12T09:36:28.576Z,101282.88
2018-10-12T09:38:56.734Z,101286.28
2018-10-12T09:41:24.867Z,101290.06
2018-10-12T09:43:54.632Z,101286.27
2018-10-12T09:46:23.019Z,101286.28
2018-10-12T09:48:51.109Z,101279.59
2018-10-12T09:51:19.200Z,101286.52
2018-10-12T09:53:47.394Z,101282.77
2018-10-12T09:56:16.540Z,101281.44
2018-10-12T09:58:45.278Z,101285.55
2018-10-12T10:01:18.793Z,101278.27
2018-10-12T10:03:52.263Z,101277.28
2018-10-12T10:06:20.412Z,101281.72
2018-10-12T10:08:48.700Z,101278.19
2018-10-12T10:11:16.708Z,101276.28
2018-10-12T10:13:44.883Z,101283.43
2018-10-12T10:16:12.973Z,101278.55
2018-10-12T10:18:41.068Z,101275.52
2018-10-12T10:21:09.181Z,101281.98
2018-10-12T10:23:37.344Z,101276.84
2018-10-12T10:26:05.455Z,101282.17
2018-10-12T10:28:33.540Z,101285.84
2018-10-12T10:31:01.628Z,101279.36
2018-10-12T10:33:29.737Z,101272.92
2018-10-12T10:35:57.825Z,101278.51
2018-10-12T10:38:25.903Z,101274.54
2018-10-12T10:40:54.010Z,101264.69
2018-10-12T10:43:22.104Z,101258.49
2018-10-12T10:45:50.208Z,101256.54
2018-10-12T10:48:18.304Z,101247.48
2018-10-12T10:50:46.507Z,101235.11
2018-10-12T10:53:14.639Z,101240.47
2018-10-12T10:55:42.809Z,101236.22
2018-10-12T10:58:10.911Z,101232.94
2018-10-12T11:00:38.998Z,101230.63
2018-10-12T11:03:07.436Z,101231.77
2018-10-12T11:05:35.517Z,101230.31
2018-10-12T11:08:03.597Z,101223.45
2018-10-12T11:10:31.669Z,101223.29
2018-10-12T11:12:59.763Z,101218.27
2018-10-12T11:15:27.814Z,101219.67
2018-10-12T11:17:55.903Z,101220.25
2018-10-12T11:20:24.149Z,101220.20
2018-10-12T11:22:52.166Z,101221.67
2018-10-12T11:25:20.254Z,101220.49
2018-10-12T11:27:48.377Z,101213.12
2018-10-12T11:30:16.496Z,101214.91
2018-10-12T11:32:44.629Z,101220.25
2018-10-12T11:35:12.739Z,101212.28
2018-10-12T11:37:40.835Z,101219.94
2018-10-12T11:40:08.928Z,101206.32
2018-10-12T11:42:48.346Z,101210.45
2018-10-12T11:45:16.478Z,101205.11
2018-10-12T11:47:44.512Z,101205.84
2018-10-12T11:50:12.608Z,101204.45
2018-10-12T11:52:40.708Z,101205.36
2018-10-12T11:55:08.819Z,101201.77
2018-10-12T11:57:36.902Z,101197.76
2018-10-12T12:00:05.000Z,101198.47
2018-10-12T12:02:33.168Z,101195.47
2018-10-12T12:05:01.275Z,101192.31
2018-10-12T12:07:29.352Z,101189.31
2018-10-12T12:09:57.423Z,101182.81
2018-10-12T12:12:25.588Z,101183.95
2018-10-12T12:14:53.688Z,101172.91
2018-10-12T12:17:21.756Z,101182.31
2018-10-12T12:19:49.894Z,101168.94
2018-10-12T12:22:18.104Z,101171.09
2018-10-12T12:24:46.214Z,101174.05
2018-10-12T12:27:14.684Z,101168.62
2018-10-12T12:29:42.816Z,101168.05
2018-10-12T12:32:10.904Z,101168.16
2018-10-12T12:34:39.118Z,101173.36
2018-10-12T12:37:07.075Z,101172.91
2018-10-12T12:39:35.320Z,101167.92
2018-10-12T12:42:03.409Z,101166.77
2018-10-12T12:44:32.015Z,101162.67
2018-10-12T12:47:00.088Z,101167.09
2018-10-12T12:49:28.386Z,101166.64
2018-10-12T12:51:56.260Z,101167.45
2018-10-12T12:54:24.852Z,101163.83
2018-10-12T12:56:54.830Z,101162.48
2018-10-12T12:59:22.915Z,101163.91
2018-10-12T13:01:51.108Z,101160.88
2018-10-12T13:04:19.270Z,101159.09
2018-10-12T13:06:47.435Z,101157.75
2018-10-12T13:09:15.590Z,101148.58
2018-10-12T13:11:43.763Z,101160.50
2018-10-12T13:14:11.857Z,101154.45
2018-10-12T13:16:39.941Z,101155.59
2018-10-12T13:19:08.069Z,101155.04
2018-10-12T13:21:36.139Z,101157.77
2018-10-12T13:24:04.292Z,101155.16
2018-10-12T13:26:32.417Z,101153.62
2018-10-12T13:29:00.499Z,101161.61
2018-10-12T13:31:28.601Z,101157.73
2018-10-12T13:33:56.695Z,101154.73
2018-10-12T13:36:24.805Z,101154.22
2018-10-12T13:38:52.873Z,101158.67
2018-10-12T13:41:20.999Z,101160.33
2018-10-12T13:43:49.100Z,101161.97
2018-10-12T13:46:17.234Z,101158.18
2018-10-12T13:48:45.331Z,101158.77
2018-10-12T13:51:13.556Z,101157.34
2018-10-12T13:53:42.936Z,101156.55
2018-10-12T13:56:13.454Z,101157.66
2018-10-12T13:58:41.928Z,101157.47
2018-10-12T14:01:11.431Z,101158.52
2018-10-12T14:03:44.853Z,101160.46
2018-10-12T14:06:15.933Z,101160.20
2018-10-12T14:08:45.185Z,101153.05
2018-10-12T14:11:13.991Z,101149.20
2018-10-12T14:13:56.812Z,101157.11
2018-10-12T14:16:25.749Z,101153.27
2018-10-12T14:18:55.226Z,101154.39
2018-10-12T14:21:23.436Z,101154.38
2018-10-12T14:23:53.882Z,101151.34
2018-10-12T14:26:39.439Z,101146.73
2018-10-12T14:29:16.556Z,101143.97
2018-10-12T14:31:47.065Z,101158.42
2018-10-12T14:34:17.163Z,101154.59
2018-10-12T14:36:50.160Z,101157.88
2018-10-12T14:39:20.731Z,101159.25
2018-10-12T14:41:54.982Z,101157.34
2018-10-12T14:44:29.212Z,101157.11
2018-10-12T14:46:57.526Z,101156.87
2018-10-12T14:49:25.609Z,101155.23
2018-10-12T14:51:53.700Z,101158.77
2018-10-12T14:54:21.903Z,101161.81
2018-10-12T14:56:50.018Z,101163.16
2018-10-12T14:59:18.632Z,101159.33
2018-10-12T15:01:47.340Z,101162.64
2018-10-12T15:04:15.588Z,101166.70
2018-10-12T15:06:44.290Z,101166.66
2018-10-12T15:09:13.705Z,101166.38
2018-10-12T15:11:41.991Z,101166.14
2018-10-12T15:14:10.359Z,101165.01
2018-10-12T15:16:38.511Z,101170.45
2018-10-12T15:19:06.962Z,101173.11
2018-10-12T15:21:35.109Z,101171.17
2018-10-12T15:24:03.147Z,101170.84
2018-10-12T15:26:31.244Z,101173.28
2018-10-12T15:28:59.328Z,101172.16
2018-10-12T15:31:27.487Z,101175.89
2018-10-12T15:33:55.564Z,101173.97
2018-10-12T15:36:23.672Z,101171.70
2018-10-12T15:38:51.762Z,101180.33
2018-10-12T15:41:20.204Z,101178.38
2018-10-12T15:43:48.533Z,101182.79
2018-10-12T15:46:16.744Z,101183.51
2018-10-12T15:48:44.909Z,101183.45
2018-10-12T15:51:13.122Z,101176.83
2018-10-12T15:53:41.075Z,101181.39
2018-10-12T15:56:09.239Z,101176.80
2018-10-12T15:58:37.256Z,101183.96
2018-10-12T16:01:06.290Z,101190.41
2018-10-12T16:03:34.380Z,101191.97
2018-10-12T16:06:02.529Z,101191.33
2018-10-12T16:08:30.568Z,101185.95
2018-10-12T16:10:58.752Z,101189.47
2018-10-12T16:13:26.912Z,101186.53
2018-10-12T16:15:55.030Z,101182.59
2018-10-12T16:18:23.161Z,101187.07
2018-10-12T16:20:51.276Z,101179.86
2018-10-12T16:23:19.335Z,101184.34
2018-10-12T16:26:02.871Z,101174.88
2018-10-12T16:28:30.964Z,101184.21
2018-10-12T16:30:59.287Z,101181.60
2018-10-12T16:33:27.372Z,101181.97
2018-10-12T16:38:24.006Z,101196.00
2018-10-12T16:40:52.118Z,101199.13
2018-10-12T16:43:20.219Z,101197.36
2018-10-12T16:45:49.459Z,101200.95
2018-10-12T16:48:17.545Z,101202.33
2018-10-12T16:50:45.728Z,101200.41
2018-10-12T16:53:13.956Z,101208.05
2018-10-12T16:55:42.135Z,101207.66
2018-10-12T16:58:11.354Z,101202.08
2018-10-12T17:00:41.291Z,101199.46
2018-10-12T17:03:10.519Z,101200.82
2018-10-12T17:05:41.256Z,101202.58
2018-10-12T17:08:10.312Z,101203.13
2018-10-12T17:10:39.472Z,101199.94
2018-10-12T17:13:07.966Z,101213.08
2018-10-12T17:15:36.393Z,101213.61
2018-10-12T17:18:09.054Z,101216.41
2018-10-12T17:20:39.437Z,101219.40
2018-10-12T17:23:08.240Z,101226.77
2018-10-12T17:25:37.989Z,101223.63
2018-10-12T17:28:08.656Z,101221.35
2018-10-12T17:30:37.423Z,101220.97
2018-10-12T17:33:06.995Z,101225.70
2018-10-12T17:35:38.610Z,101227.83
2018-10-12T17:38:08.319Z,101229.63
2018-10-12T17:40:38.550Z,101229.55
2018-10-12T17:43:07.261Z,101236.73
2018-10-12T17:45:36.197Z,101242.03
2018-10-12T17:48:06.608Z,101243.83
2018-10-12T17:50:37.411Z,101242.78
2018-10-12T17:53:06.320Z,101244.08
2018-10-12T17:55:37.601Z,101246.95
2018-10-12T17:58:07.350Z,101255.83
2018-10-12T18:00:37.442Z,101258.47
2018-10-12T18:03:08.224Z,101252.59
2018-10-12T18:05:36.579Z,101246.63
2018-10-12T18:08:05.756Z,101255.14
2018-10-12T18:10:34.261Z,101256.35
2018-10-12T18:13:05.235Z,101258.45
2018-10-12T18:15:36.807Z,101260.27
2018-10-12T18:18:06.035Z,101260.41
2018-10-12T18:20:38.428Z,101261.67
2018-10-12T18:23:11.779Z,101264.75
2018-10-12T18:25:41.633Z,101267.65
2018-10-12T18:28:11.591Z,101264.78
2018-10-12T18:30:41.268Z,101262.69
2018-10-12T18:33:11.375Z,101265.48
2018-10-12T18:35:44.617Z,101268.42
2018-10-12T18:38:14.293Z,101266.88
2018-10-12T18:43:27.941Z,101269.71
2018-10-12T18:45:56.562Z,101275.52
2018-10-12T18:48:25.149Z,101271.45
2018-10-12T18:50:53.655Z,101273.64
2018-10-12T18:53:22.044Z,101282.00
2018-10-12T18:55:50.499Z,101277.18
2018-10-12T18:58:20.333Z,101277.57
2018-10-12T19:00:50.812Z,101281.52
2018-10-12T19:03:22.037Z,101283.27
2018-10-12T19:05:51.380Z,101287.44
2018-10-12T19:08:20.703Z,101284.84
2018-10-12T19:10:50.999Z,101284.64
2018-10-12T19:13:20.449Z,101278.23
2018-10-12T19:15:54.649Z,101284.83
2018-10-12T19:18:43.465Z,101282.48
2018-10-12T19:21:12.436Z,101287.55
2018-10-12T19:23:41.755Z,101280.13
2018-10-12T19:26:12.869Z,101291.66
2018-10-12T19:28:43.048Z,101288.85
2018-10-12T19:33:51.773Z,101289.80
2018-10-12T19:36:24.464Z,101291.03
2018-10-12T19:38:54.230Z,101285.83
2018-10-12T19:41:34.377Z,101299.03
2018-10-12T19:44:03.499Z,101300.67
2018-10-12T19:46:39.657Z,101296.52
2018-10-12T19:49:10.474Z,101302.45
2018-10-12T19:51:50.417Z,101306.92
2018-10-12T19:54:23.821Z,101310.97
2018-10-12T19:56:53.359Z,101308.99
2018-10-12T19:59:23.845Z,101311.89
2018-10-12T20:01:57.817Z,101310.00
2018-10-12T20:04:26.817Z,101310.00
2018-10-12T20:06:57.447Z,101309.59
2018-10-12T20:09:32.799Z,101318.31
2018-10-12T20:12:04.859Z,101315.39
2018-10-12T20:14:34.411Z,101322.88
2018-10-12T20:17:06.396Z,101329.21
2018-10-12T20:19:37.174Z,101327.86
2018-10-12T20:22:09.825Z,101323.80
2018-10-12T20:24:56.468Z,101320.59
2018-10-12T20:27:26.675Z,101320.63
2018-10-12T20:29:56.096Z,101325.05
2018-10-12T20:32:25.249Z,101321.88
2018-10-12T20:35:00.535Z,101325.39
2018-10-12T20:37:32.128Z,101322.98
2018-10-12T20:40:02.356Z,101317.92
2018-10-12T20:42:33.789Z,101318.14
2018-10-12T20:45:03.942Z,101314.39
2018-10-12T20:47:34.974Z,101320.72
2018-10-12T20:50:05.101Z,101320.20
2018-10-12T20:52:36.603Z,101324.66
2018-10-12T20:55:08.575Z,101329.55
2018-10-12T20:57:42.039Z,101329.82
2018-10-12T21:00:11.964Z,101330.62
2018-10-12T21:02:40.233Z,101328.47
2018-10-12T21:05:09.813Z,101331.46
2018-10-12T21:07:39.518Z,101324.64
2018-10-12T21:10:09.693Z,101326.34
2018-10-12T21:12:38.201Z,101330.70
2018-10-12T21:15:09.433Z,101332.14
2018-10-12T21:17:39.054Z,101333.66
2018-10-12T21:20:11.352Z,101325.92
2018-10-12T21:22:43.888Z,101330.67
2018-10-12T21:25:14.475Z,101327.64
2018-10-12T21:27:43.027Z,101334.62
2018-10-12T21:30:12.521Z,101326.25
2018-10-12T21:32:41.847Z,101331.05
2018-10-12T21:35:10.316Z,101322.88
2018-10-12T21:37:40.089Z,101326.80
2018-10-12T21:40:12.817Z,101325.33
2018-10-12T21:42:42.302Z,101331.55
2018-10-12T21:45:13.443Z,101333.05
2018-10-12T21:47:41.940Z,101333.72
2018-10-12T21:50:12.620Z,101329.38
2018-10-12T21:52:41.016Z,101330.41
2018-10-12T21:55:09.258Z,101328.73
2018-10-12T21:57:37.667Z,101324.05
2018-10-12T22:00:07.165Z,101325.39
2018-10-12T22:02:36.479Z,101321.86
2018-10-12T22:05:05.848Z,101322.88
2018-10-12T22:07:35.189Z,101321.58
2018-10-12T22:10:05.791Z,101314.25
2018-10-12T22:12:40.091Z,101315.16
2018-10-12T22:15:11.501Z,101310.13
2018-10-12T22:17:42.300Z,101307.65
2018-10-12T22:20:14.452Z,101306.25
2018-10-12T22:22:47.977Z,101303.09
2018-10-12T22:25:17.075Z,101304.77
2018-10-12T22:27:46.255Z,101302.45
2018-10-12T22:30:15.348Z,101303.17
2018-10-12T22:32:43.601Z,101299.13
2018-10-12T22:35:15.860Z,101297.91
2018-10-12T22:37:46.806Z,101293.02
2018-10-12T22:40:15.510Z,101289.42
2018-10-12T22:42:43.990Z,101290.97
2018-10-12T22:45:13.104Z,101288.89
2018-10-12T22:47:45.405Z,101284.87
2018-10-12T22:50:15.738Z,101291.27
2018-10-12T22:52:47.368Z,101286.59
2018-10-12T22:55:16.773Z,101284.18
2018-10-12T22:57:45.248Z,101283.61
2018-10-12T23:00:14.994Z,101288.48
2018-10-12T23:02:44.096Z,101290.53
2018-10-12T23:05:18.710Z,101286.23
2018-10-12T23:07:47.241Z,101288.25
2018-10-12T23:10:16.121Z,101286.94
2018-10-12T23:12:45.710Z,101291.24
2018-10-12T23:15:14.631Z,101289.62
2018-10-12T23:17:44.009Z,101292.25
2018-10-12T23:20:18.630Z,101285.50
2018-10-12T23:22:47.745Z,101285.59
2018-10-12T23:25:16.805Z,101292.95
2018-10-12T23:27:46.203Z,101288.92
2018-10-12T23:30:16.245Z,101275.89
2018-10-12T23:32:46.546Z,101280.63
2018-10-12T23:35:15.031Z,101278.38
2018-10-12T23:37:44.399Z,101278.77
2018-10-12T23:40:14.302Z,101273.27
2018-10-12T23:42:42.535Z,101275.05
2018-10-12T23:45:12.257Z,101282.73
2018-10-12T23:47:43.097Z,101279.61
2018-10-12T23:50:13.305Z,101271.98
2018-10-12T23:52:44.276Z,101277.73
2018-10-12T23:55:45.470Z,101270.07
2018-10-12T23:58:17.081Z,101279.78
